sensor_id;sensor_type;location;lat;lon;timestamp;P1;durP1;ratioP1;P2;durP2;ratioP2
52962;SDS011;38827;53.024;6.596;2023-09-19T00:00:21;6.28;;;1.58;;
52962;SDS011;38827;53.024;6.596;2023-09-19T00:02:55;10.13;;;2.53;;
52962;SDS011;38827;53.024;6.596;2023-09-19T00:05:24;6.47;;;1.58;;
52962;SDS011;38827;53.024;6.596;2023-09-19T00:07:52;8.88;;;1.73;;
52962;SDS011;38827;53.024;6.596;2023-09-19T00:10:19;11.60;;;1.88;;
52962;SDS011;38827;53.024;6.596;2023-09-19T00:12:54;9.82;;;2.03;;
52962;SDS011;38827;53.024;6.596;2023-09-19T00:15:21;11.07;;;1.80;;
52962;SDS011;38827;53.024;6.596;2023-09-19T00:17:48;8.02;;;1.73;;
52962;SDS011;38827;53.024;6.596;2023-09-19T00:23:11;8.73;;;1.70;;
52962;SDS011;38827;53.024;6.596;2023-09-19T00:25:36;8.18;;;1.90;;
52962;SDS011;38827;53.024;6.596;2023-09-19T00:28:03;9.45;;;1.98;;
52962;SDS011;38827;53.024;6.596;2023-09-19T00:30:32;7.50;;;1.70;;
52962;SDS011;38827;53.024;6.596;2023-09-19T00:33:03;9.10;;;1.88;;
52962;SDS011;38827;53.024;6.596;2023-09-19T00:35:31;10.27;;;1.70;;
52962;SDS011;38827;53.024;6.596;2023-09-19T00:37:57;13.70;;;1.88;;
52962;SDS011;38827;53.024;6.596;2023-09-19T00:40:22;8.68;;;1.70;;
52962;SDS011;38827;53.024;6.596;2023-09-19T00:42:49;9.47;;;2.23;;
52962;SDS011;38827;53.024;6.596;2023-09-19T00:45:17;9.88;;;1.80;;
52962;SDS011;38827;53.024;6.596;2023-09-19T00:47:49;10.05;;;1.67;;
52962;SDS011;38827;53.024;6.596;2023-09-19T00:53:11;10.07;;;2.05;;
52962;SDS011;38827;53.024;6.596;2023-09-19T00:55:39;8.70;;;1.88;;
52962;SDS011;38827;53.024;6.596;2023-09-19T00:58:07;8.05;;;1.80;;
52962;SDS011;38827;53.024;6.596;2023-09-19T01:00:35;12.18;;;1.80;;
52962;SDS011;38827;53.024;6.596;2023-09-19T01:03:01;14.68;;;2.08;;
52962;SDS011;38827;53.024;6.596;2023-09-19T01:05:27;13.35;;;2.15;;
52962;SDS011;38827;53.024;6.596;2023-09-19T01:07:53;9.50;;;2.37;;
52962;SDS011;38827;53.024;6.596;2023-09-19T01:10:19;13.52;;;2.40;;
52962;SDS011;38827;53.024;6.596;2023-09-19T01:31:19;12.65;;;2.25;;
52962;SDS011;38827;53.024;6.596;2023-09-19T01:34:02;10.93;;;1.85;;
52962;SDS011;38827;53.024;6.596;2023-09-19T01:36:33;10.20;;;2.38;;
52962;SDS011;38827;53.024;6.596;2023-09-19T01:39:10;12.73;;;2.15;;
52962;SDS011;38827;53.024;6.596;2023-09-19T01:44:11;10.45;;;2.17;;
52962;SDS011;38827;53.024;6.596;2023-09-19T01:46:50;11.70;;;2.15;;
52962;SDS011;38827;53.024;6.596;2023-09-19T01:49:33;9.07;;;1.80;;
52962;SDS011;38827;53.024;6.596;2023-09-19T01:54:56;9.32;;;1.77;;
52962;SDS011;38827;53.024;6.596;2023-09-19T01:57:37;10.18;;;2.10;;
52962;SDS011;38827;53.024;6.596;2023-09-19T02:00:11;8.23;;;2.00;;
52962;SDS011;38827;53.024;6.596;2023-09-19T02:02:39;6.82;;;1.63;;
52962;SDS011;38827;53.024;6.596;2023-09-19T02:15:40;9.30;;;2.33;;
52962;SDS011;38827;53.024;6.596;2023-09-19T02:18:06;13.18;;;2.40;;
52962;SDS011;38827;53.024;6.596;2023-09-19T02:20:32;12.63;;;2.23;;
52962;SDS011;38827;53.024;6.596;2023-09-19T02:22:58;18.33;;;2.70;;
52962;SDS011;38827;53.024;6.596;2023-09-19T02:25:24;9.70;;;1.85;;
52962;SDS011;38827;53.024;6.596;2023-09-19T02:27:51;13.30;;;2.40;;
52962;SDS011;38827;53.024;6.596;2023-09-19T02:35:29;12.20;;;2.30;;
52962;SDS011;38827;53.024;6.596;2023-09-19T02:38:00;11.15;;;2.33;;
52962;SDS011;38827;53.024;6.596;2023-09-19T02:40:25;9.00;;;2.17;;
52962;SDS011;38827;53.024;6.596;2023-09-19T02:42:55;11.60;;;2.10;;
52962;SDS011;38827;53.024;6.596;2023-09-19T02:45:21;12.43;;;2.00;;
52962;SDS011;38827;53.024;6.596;2023-09-19T02:47:48;9.88;;;2.17;;
52962;SDS011;38827;53.024;6.596;2023-09-19T02:50:14;14.07;;;2.35;;
52962;SDS011;38827;53.024;6.596;2023-09-19T02:52:42;10.00;;;2.25;;
52962;SDS011;38827;53.024;6.596;2023-09-19T02:55:14;9.32;;;1.98;;
52962;SDS011;38827;53.024;6.596;2023-09-19T02:57:48;14.75;;;2.28;;
52962;SDS011;38827;53.024;6.596;2023-09-19T03:00:19;9.85;;;2.25;;
52962;SDS011;38827;53.024;6.596;2023-09-19T03:02:46;10.60;;;2.00;;
52962;SDS011;38827;53.024;6.596;2023-09-19T03:05:14;13.60;;;2.47;;
52962;SDS011;38827;53.024;6.596;2023-09-19T03:07:40;12.38;;;2.20;;
52962;SDS011;38827;53.024;6.596;2023-09-19T03:10:07;8.98;;;2.15;;
52962;SDS011;38827;53.024;6.596;2023-09-19T03:12:34;9.13;;;2.70;;
52962;SDS011;38827;53.024;6.596;2023-09-19T03:15:00;10.30;;;1.77;;
52962;SDS011;38827;53.024;6.596;2023-09-19T03:17:26;6.67;;;2.20;;
52962;SDS011;38827;53.024;6.596;2023-09-19T03:19:52;10.27;;;2.33;;
52962;SDS011;38827;53.024;6.596;2023-09-19T03:22:19;8.00;;;2.03;;
52962;SDS011;38827;53.024;6.596;2023-09-19T03:24:46;13.82;;;2.60;;
52962;SDS011;38827;53.024;6.596;2023-09-19T03:27:14;9.68;;;2.40;;
52962;SDS011;38827;53.024;6.596;2023-09-19T03:29:41;9.57;;;2.55;;
52962;SDS011;38827;53.024;6.596;2023-09-19T03:32:07;9.85;;;2.35;;
52962;SDS011;38827;53.024;6.596;2023-09-19T03:34:36;11.43;;;2.47;;
52962;SDS011;38827;53.024;6.596;2023-09-19T03:37:05;10.25;;;2.45;;
52962;SDS011;38827;53.024;6.596;2023-09-19T03:39:32;8.18;;;2.20;;
52962;SDS011;38827;53.024;6.596;2023-09-19T03:41:57;8.43;;;2.20;;
52962;SDS011;38827;53.024;6.596;2023-09-19T03:44:23;6.68;;;1.67;;
52962;SDS011;38827;53.024;6.596;2023-09-19T03:46:49;9.75;;;2.20;;
52962;SDS011;38827;53.024;6.596;2023-09-19T03:49:14;11.30;;;2.42;;
52962;SDS011;38827;53.024;6.596;2023-09-19T03:51:40;9.40;;;2.22;;
52962;SDS011;38827;53.024;6.596;2023-09-19T03:54:07;11.90;;;2.85;;
52962;SDS011;38827;53.024;6.596;2023-09-19T03:56:34;9.23;;;2.22;;
52962;SDS011;38827;53.024;6.596;2023-09-19T03:58:59;14.93;;;2.50;;
52962;SDS011;38827;53.024;6.596;2023-09-19T04:01:25;11.43;;;2.63;;
52962;SDS011;38827;53.024;6.596;2023-09-19T04:03:52;11.82;;;2.83;;
52962;SDS011;38827;53.024;6.596;2023-09-19T04:06:18;10.15;;;2.33;;
52962;SDS011;38827;53.024;6.596;2023-09-19T04:08:44;8.95;;;2.58;;
52962;SDS011;38827;53.024;6.596;2023-09-19T04:11:12;11.20;;;2.35;;
52962;SDS011;38827;53.024;6.596;2023-09-19T04:13:38;13.38;;;2.15;;
52962;SDS011;38827;53.024;6.596;2023-09-19T04:16:03;8.52;;;2.00;;
52962;SDS011;38827;53.024;6.596;2023-09-19T04:18:29;9.27;;;2.67;;
52962;SDS011;38827;53.024;6.596;2023-09-19T04:21:02;9.32;;;2.08;;
52962;SDS011;38827;53.024;6.596;2023-09-19T04:23:32;11.05;;;2.22;;
52962;SDS011;38827;53.024;6.596;2023-09-19T04:25:58;10.50;;;2.33;;
52962;SDS011;38827;53.024;6.596;2023-09-19T04:28:24;10.60;;;2.58;;
52962;SDS011;38827;53.024;6.596;2023-09-19T04:30:50;7.28;;;2.08;;
52962;SDS011;38827;53.024;6.596;2023-09-19T04:33:15;9.07;;;2.13;;
52962;SDS011;38827;53.024;6.596;2023-09-19T04:38:09;9.80;;;2.50;;
52962;SDS011;38827;53.024;6.596;2023-09-19T04:40:34;14.60;;;3.05;;
52962;SDS011;38827;53.024;6.596;2023-09-19T04:43:03;9.40;;;2.20;;
52962;SDS011;38827;53.024;6.596;2023-09-19T04:45:29;10.02;;;2.72;;
52962;SDS011;38827;53.024;6.596;2023-09-19T04:47:54;12.00;;;2.20;;
52962;SDS011;38827;53.024;6.596;2023-09-19T04:50:21;8.10;;;2.83;;
52962;SDS011;38827;53.024;6.596;2023-09-19T04:55:17;11.05;;;2.70;;
52962;SDS011;38827;53.024;6.596;2023-09-19T04:57:47;6.90;;;2.35;;
52962;SDS011;38827;53.024;6.596;2023-09-19T05:02:54;9.82;;;2.38;;
52962;SDS011;38827;53.024;6.596;2023-09-19T05:05:21;9.55;;;2.75;;
52962;SDS011;38827;53.024;6.596;2023-09-19T05:07:48;9.88;;;2.65;;
52962;SDS011;38827;53.024;6.596;2023-09-19T05:10:16;10.50;;;2.67;;
52962;SDS011;38827;53.024;6.596;2023-09-19T05:12:43;11.93;;;2.10;;
52962;SDS011;38827;53.024;6.596;2023-09-19T05:15:12;11.27;;;2.33;;
52962;SDS011;38827;53.024;6.596;2023-09-19T05:17:42;10.35;;;2.30;;
52962;SDS011;38827;53.024;6.596;2023-09-19T05:20:13;12.50;;;2.55;;
52962;SDS011;38827;53.024;6.596;2023-09-19T05:22:43;10.32;;;2.83;;
52962;SDS011;38827;53.024;6.596;2023-09-19T05:25:11;9.75;;;2.40;;
52962;SDS011;38827;53.024;6.596;2023-09-19T05:27:41;11.93;;;2.40;;
52962;SDS011;38827;53.024;6.596;2023-09-19T05:30:08;8.88;;;2.65;;
52962;SDS011;38827;53.024;6.596;2023-09-19T05:32:34;13.03;;;2.77;;
52962;SDS011;38827;53.024;6.596;2023-09-19T05:35:00;9.75;;;2.58;;
52962;SDS011;38827;53.024;6.596;2023-09-19T05:37:26;12.35;;;2.50;;
52962;SDS011;38827;53.024;6.596;2023-09-19T05:39:52;8.20;;;2.25;;
52962;SDS011;38827;53.024;6.596;2023-09-19T05:42:20;11.88;;;2.35;;
52962;SDS011;38827;53.024;6.596;2023-09-19T05:44:46;12.80;;;2.50;;
52962;SDS011;38827;53.024;6.596;2023-09-19T05:47:11;15.32;;;3.30;;
52962;SDS011;38827;53.024;6.596;2023-09-19T05:49:38;11.02;;;2.47;;
52962;SDS011;38827;53.024;6.596;2023-09-19T05:52:07;13.18;;;2.50;;
52962;SDS011;38827;53.024;6.596;2023-09-19T05:54:33;10.45;;;2.22;;
52962;SDS011;38827;53.024;6.596;2023-09-19T05:56:59;11.73;;;2.42;;
52962;SDS011;38827;53.024;6.596;2023-09-19T05:59:26;11.27;;;2.80;;
52962;SDS011;38827;53.024;6.596;2023-09-19T06:01:52;9.80;;;2.45;;
52962;SDS011;38827;53.024;6.596;2023-09-19T06:04:18;13.45;;;3.05;;
52962;SDS011;38827;53.024;6.596;2023-09-19T06:06:46;10.40;;;2.08;;
52962;SDS011;38827;53.024;6.596;2023-09-19T06:11:42;9.18;;;2.67;;
52962;SDS011;38827;53.024;6.596;2023-09-19T06:14:08;16.35;;;3.00;;
52962;SDS011;38827;53.024;6.596;2023-09-19T06:16:35;9.52;;;2.45;;
52962;SDS011;38827;53.024;6.596;2023-09-19T06:19:03;15.82;;;2.65;;
52962;SDS011;38827;53.024;6.596;2023-09-19T06:21:31;12.80;;;2.78;;
52962;SDS011;38827;53.024;6.596;2023-09-19T06:23:57;12.70;;;2.80;;
52962;SDS011;38827;53.024;6.596;2023-09-19T06:26:24;12.45;;;2.40;;
52962;SDS011;38827;53.024;6.596;2023-09-19T06:28:51;16.50;;;2.60;;
52962;SDS011;38827;53.024;6.596;2023-09-19T06:31:17;10.10;;;1.90;;
52962;SDS011;38827;53.024;6.596;2023-09-19T06:33:43;13.40;;;2.75;;
52962;SDS011;38827;53.024;6.596;2023-09-19T06:36:09;13.15;;;3.08;;
52962;SDS011;38827;53.024;6.596;2023-09-19T06:38:36;10.88;;;2.53;;
52962;SDS011;38827;53.024;6.596;2023-09-19T06:41:04;11.27;;;3.08;;
52962;SDS011;38827;53.024;6.596;2023-09-19T06:43:30;8.05;;;2.75;;
52962;SDS011;38827;53.024;6.596;2023-09-19T06:45:56;13.93;;;3.00;;
52962;SDS011;38827;53.024;6.596;2023-09-19T06:48:25;13.40;;;3.33;;
52962;SDS011;38827;53.024;6.596;2023-09-19T06:50:55;13.37;;;2.50;;
52962;SDS011;38827;53.024;6.596;2023-09-19T06:53:23;12.70;;;2.60;;
52962;SDS011;38827;53.024;6.596;2023-09-19T06:55:54;10.40;;;2.30;;
52962;SDS011;38827;53.024;6.596;2023-09-19T06:58:23;12.52;;;2.60;;
52962;SDS011;38827;53.024;6.596;2023-09-19T07:00:49;12.70;;;2.20;;
52962;SDS011;38827;53.024;6.596;2023-09-19T07:03:15;9.43;;;2.80;;
52962;SDS011;38827;53.024;6.596;2023-09-19T07:05:47;10.13;;;2.38;;
52962;SDS011;38827;53.024;6.596;2023-09-19T07:08:13;13.10;;;2.22;;
52962;SDS011;38827;53.024;6.596;2023-09-19T07:10:41;11.80;;;2.33;;
52962;SDS011;38827;53.024;6.596;2023-09-19T07:16:55;9.88;;;2.10;;
52962;SDS011;38827;53.024;6.596;2023-09-19T07:33:33;9.27;;;2.25;;
52962;SDS011;38827;53.024;6.596;2023-09-19T07:36:02;9.48;;;2.78;;
52962;SDS011;38827;53.024;6.596;2023-09-19T07:38:43;10.75;;;2.17;;
52962;SDS011;38827;53.024;6.596;2023-09-19T07:41:24;10.50;;;2.33;;
52962;SDS011;38827;53.024;6.596;2023-09-19T07:44:16;9.48;;;2.15;;
52962;SDS011;38827;53.024;6.596;2023-09-19T07:50:23;10.50;;;2.33;;
52962;SDS011;38827;53.024;6.596;2023-09-19T07:52:58;10.43;;;2.30;;
52962;SDS011;38827;53.024;6.596;2023-09-19T07:55:24;9.57;;;2.33;;
52962;SDS011;38827;53.024;6.596;2023-09-19T08:00:41;7.75;;;1.77;;
52962;SDS011;38827;53.024;6.596;2023-09-19T08:11:42;9.25;;;2.65;;
52962;SDS011;38827;53.024;6.596;2023-09-19T08:14:09;6.30;;;2.35;;
52962;SDS011;38827;53.024;6.596;2023-09-19T08:16:34;8.40;;;2.17;;
52962;SDS011;38827;53.024;6.596;2023-09-19T08:19:00;11.95;;;2.60;;
52962;SDS011;38827;53.024;6.596;2023-09-19T08:21:26;11.67;;;2.20;;
52962;SDS011;38827;53.024;6.596;2023-09-19T08:24:03;9.18;;;2.53;;
52962;SDS011;38827;53.024;6.596;2023-09-19T08:37:21;10.77;;;2.60;;
52962;SDS011;38827;53.024;6.596;2023-09-19T08:39:50;11.57;;;2.55;;
52962;SDS011;38827;53.024;6.596;2023-09-19T08:42:22;12.73;;;2.80;;
52962;SDS011;38827;53.024;6.596;2023-09-19T08:44:50;9.20;;;2.35;;
52962;SDS011;38827;53.024;6.596;2023-09-19T08:52:20;12.82;;;2.88;;
52962;SDS011;38827;53.024;6.596;2023-09-19T09:01:52;8.73;;;2.55;;
52962;SDS011;38827;53.024;6.596;2023-09-19T09:04:23;11.43;;;2.33;;
52962;SDS011;38827;53.024;6.596;2023-09-19T09:06:51;9.18;;;2.72;;
52962;SDS011;38827;53.024;6.596;2023-09-19T09:14:22;11.30;;;3.08;;
52962;SDS011;38827;53.024;6.596;2023-09-19T09:16:49;12.30;;;2.97;;
52962;SDS011;38827;53.024;6.596;2023-09-19T09:19:15;11.77;;;2.47;;
52962;SDS011;38827;53.024;6.596;2023-09-19T09:21:49;10.23;;;2.65;;
52962;SDS011;38827;53.024;6.596;2023-09-19T09:24:27;13.73;;;2.92;;
52962;SDS011;38827;53.024;6.596;2023-09-19T09:26:54;14.07;;;2.58;;
52962;SDS011;38827;53.024;6.596;2023-09-19T09:31:58;12.10;;;2.70;;
52962;SDS011;38827;53.024;6.596;2023-09-19T09:35:00;13.85;;;2.80;;
52962;SDS011;38827;53.024;6.596;2023-09-19T09:46:58;12.75;;;3.40;;
52962;SDS011;38827;53.024;6.596;2023-09-19T09:49:59;8.07;;;2.33;;
52962;SDS011;38827;53.024;6.596;2023-09-19T09:52:43;9.73;;;2.55;;
52962;SDS011;38827;53.024;6.596;2023-09-19T09:55:09;9.25;;;2.83;;
52962;SDS011;38827;53.024;6.596;2023-09-19T09:57:35;9.60;;;3.00;;
52962;SDS011;38827;53.024;6.596;2023-09-19T10:00:04;11.80;;;2.67;;
52962;SDS011;38827;53.024;6.596;2023-09-19T10:02:36;9.55;;;2.60;;
52962;SDS011;38827;53.024;6.596;2023-09-19T10:07:45;8.60;;;2.55;;
52962;SDS011;38827;53.024;6.596;2023-09-19T10:10:30;11.15;;;2.88;;
52962;SDS011;38827;53.024;6.596;2023-09-19T10:13:03;9.73;;;2.70;;
52962;SDS011;38827;53.024;6.596;2023-09-19T10:15:31;9.18;;;2.33;;
52962;SDS011;38827;53.024;6.596;2023-09-19T10:18:01;11.60;;;2.85;;
52962;SDS011;38827;53.024;6.596;2023-09-19T10:20:30;9.90;;;2.90;;
52962;SDS011;38827;53.024;6.596;2023-09-19T10:23:01;10.88;;;2.78;;
52962;SDS011;38827;53.024;6.596;2023-09-19T10:25:38;11.35;;;2.60;;
52962;SDS011;38827;53.024;6.596;2023-09-19T10:28:06;9.68;;;2.78;;
52962;SDS011;38827;53.024;6.596;2023-09-19T10:30:46;6.97;;;2.45;;
52962;SDS011;38827;53.024;6.596;2023-09-19T10:33:15;15.18;;;2.70;;
52962;SDS011;38827;53.024;6.596;2023-09-19T10:35:42;10.40;;;3.03;;
52962;SDS011;38827;53.024;6.596;2023-09-19T10:38:15;11.45;;;2.70;;
52962;SDS011;38827;53.024;6.596;2023-09-19T10:40:50;11.20;;;3.00;;
52962;SDS011;38827;53.024;6.596;2023-09-19T10:43:21;9.13;;;2.30;;
52962;SDS011;38827;53.024;6.596;2023-09-19T10:45:51;11.98;;;3.08;;
52962;SDS011;38827;53.024;6.596;2023-09-19T10:58:45;10.55;;;2.60;;
52962;SDS011;38827;53.024;6.596;2023-09-19T11:01:11;11.97;;;2.73;;
52962;SDS011;38827;53.024;6.596;2023-09-19T11:03:38;10.70;;;3.05;;
52962;SDS011;38827;53.024;6.596;2023-09-19T11:30:40;10.93;;;2.40;;
52962;SDS011;38827;53.024;6.596;2023-09-19T11:33:25;13.00;;;2.83;;
52962;SDS011;38827;53.024;6.596;2023-09-19T11:46:28;11.43;;;2.55;;
52962;SDS011;38827;53.024;6.596;2023-09-19T11:49:07;12.45;;;2.53;;
52962;SDS011;38827;53.024;6.596;2023-09-19T11:51:40;10.50;;;2.75;;
52962;SDS011;38827;53.024;6.596;2023-09-19T11:54:11;8.32;;;2.47;;
52962;SDS011;38827;53.024;6.596;2023-09-19T11:56:43;8.05;;;2.40;;
52962;SDS011;38827;53.024;6.596;2023-09-19T11:59:10;7.03;;;2.08;;
52962;SDS011;38827;53.024;6.596;2023-09-19T12:01:37;7.22;;;1.85;;
52962;SDS011;38827;53.024;6.596;2023-09-19T12:04:08;11.45;;;2.78;;
52962;SDS011;38827;53.024;6.596;2023-09-19T12:06:37;9.10;;;2.22;;
52962;SDS011;38827;53.024;6.596;2023-09-19T12:09:12;11.10;;;2.10;;
52962;SDS011;38827;53.024;6.596;2023-09-19T12:11:53;11.60;;;2.78;;
52962;SDS011;38827;53.024;6.596;2023-09-19T12:14:22;10.70;;;2.38;;
52962;SDS011;38827;53.024;6.596;2023-09-19T12:16:54;10.88;;;2.40;;
52962;SDS011;38827;53.024;6.596;2023-09-19T12:19:21;10.60;;;2.00;;
52962;SDS011;38827;53.024;6.596;2023-09-19T12:21:55;11.18;;;2.47;;
52962;SDS011;38827;53.024;6.596;2023-09-19T12:24:23;12.95;;;2.33;;
52962;SDS011;38827;53.024;6.596;2023-09-19T12:26:51;11.02;;;2.45;;
52962;SDS011;38827;53.024;6.596;2023-09-19T12:29:18;13.83;;;2.30;;
52962;SDS011;38827;53.024;6.596;2023-09-19T12:34:27;11.40;;;2.38;;
52962;SDS011;38827;53.024;6.596;2023-09-19T12:37:04;9.43;;;1.60;;
52962;SDS011;38827;53.024;6.596;2023-09-19T12:39:37;12.50;;;2.45;;
52962;SDS011;38827;53.024;6.596;2023-09-19T12:42:07;9.10;;;2.25;;
52962;SDS011;38827;53.024;6.596;2023-09-19T12:52:34;6.53;;;1.58;;
52962;SDS011;38827;53.024;6.596;2023-09-19T12:55:22;11.80;;;2.13;;
52962;SDS011;38827;53.024;6.596;2023-09-19T12:57:58;8.23;;;1.80;;
52962;SDS011;38827;53.024;6.596;2023-09-19T13:00:37;12.45;;;2.20;;
52962;SDS011;38827;53.024;6.596;2023-09-19T13:03:16;7.82;;;1.55;;
52962;SDS011;38827;53.024;6.596;2023-09-19T13:05:56;8.38;;;1.95;;
52962;SDS011;38827;53.024;6.596;2023-09-19T13:08:29;10.85;;;2.42;;
52962;SDS011;38827;53.024;6.596;2023-09-19T13:11:09;8.27;;;1.60;;
52962;SDS011;38827;53.024;6.596;2023-09-19T13:17:08;7.13;;;1.80;;
52962;SDS011;38827;53.024;6.596;2023-09-19T13:19:47;8.63;;;1.73;;
52962;SDS011;38827;53.024;6.596;2023-09-19T13:32:49;7.72;;;1.90;;
52962;SDS011;38827;53.024;6.596;2023-09-19T13:35:24;4.20;;;1.60;;
52962;SDS011;38827;53.024;6.596;2023-09-19T13:37:50;9.65;;;1.58;;
52962;SDS011;38827;53.024;6.596;2023-09-19T13:40:16;8.88;;;1.88;;
52962;SDS011;38827;53.024;6.596;2023-09-19T13:42:42;9.30;;;1.95;;
52962;SDS011;38827;53.024;6.596;2023-09-19T13:45:08;10.40;;;1.75;;
52962;SDS011;38827;53.024;6.596;2023-09-19T13:47:42;5.28;;;1.30;;
52962;SDS011;38827;53.024;6.596;2023-09-19T13:50:09;7.53;;;1.27;;
52962;SDS011;38827;53.024;6.596;2023-09-19T13:52:35;5.03;;;1.40;;
52962;SDS011;38827;53.024;6.596;2023-09-19T13:55:00;5.38;;;1.20;;
52962;SDS011;38827;53.024;6.596;2023-09-19T13:57:29;5.88;;;1.23;;
52962;SDS011;38827;53.024;6.596;2023-09-19T14:18:53;6.70;;;1.50;;
52962;SDS011;38827;53.024;6.596;2023-09-19T14:37:14;9.27;;;2.17;;
52962;SDS011;38827;53.024;6.596;2023-09-19T14:59:14;5.43;;;1.10;;
52962;SDS011;38827;53.024;6.596;2023-09-19T15:04:42;8.00;;;1.30;;
52962;SDS011;38827;53.024;6.596;2023-09-19T15:07:28;5.57;;;1.73;;
52962;SDS011;38827;53.024;6.596;2023-09-19T15:10:09;6.88;;;1.70;;
52962;SDS011;38827;53.024;6.596;2023-09-19T15:12:37;5.00;;;1.30;;
52962;SDS011;38827;53.024;6.596;2023-09-19T15:15:16;6.38;;;1.30;;
52962;SDS011;38827;53.024;6.596;2023-09-19T15:17:52;5.97;;;1.10;;
52962;SDS011;38827;53.024;6.596;2023-09-19T15:26:35;6.68;;;1.30;;
52962;SDS011;38827;53.024;6.596;2023-09-19T15:46:57;8.30;;;1.83;;
52962;SDS011;38827;53.024;6.596;2023-09-19T15:49:28;5.93;;;1.20;;
52962;SDS011;38827;53.024;6.596;2023-09-19T15:51:57;6.18;;;1.85;;
52962;SDS011;38827;53.024;6.596;2023-09-19T15:55:05;6.43;;;1.70;;
52962;SDS011;38827;53.024;6.596;2023-09-19T15:57:32;5.70;;;1.40;;
52962;SDS011;38827;53.024;6.596;2023-09-19T16:02:52;4.93;;;1.30;;
52962;SDS011;38827;53.024;6.596;2023-09-19T16:14:22;7.30;;;1.67;;
52962;SDS011;38827;53.024;6.596;2023-09-19T16:20:21;4.75;;;1.60;;
52962;SDS011;38827;53.024;6.596;2023-09-19T16:26:16;3.88;;;1.25;;
52962;SDS011;38827;53.024;6.596;2023-09-19T16:28:46;6.28;;;1.70;;
52962;SDS011;38827;53.024;6.596;2023-09-19T16:31:12;3.50;;;1.50;;
52962;SDS011;38827;53.024;6.596;2023-09-19T16:33:39;3.73;;;1.70;;
52962;SDS011;38827;53.024;6.596;2023-09-19T16:36:07;6.53;;;1.50;;
52962;SDS011;38827;53.024;6.596;2023-09-19T16:38:34;4.63;;;1.52;;
52962;SDS011;38827;53.024;6.596;2023-09-19T16:41:00;6.90;;;1.65;;
52962;SDS011;38827;53.024;6.596;2023-09-19T16:43:27;6.90;;;1.52;;
52962;SDS011;38827;53.024;6.596;2023-09-19T16:45:56;6.38;;;1.70;;
52962;SDS011;38827;53.024;6.596;2023-09-19T16:48:26;9.35;;;1.80;;
52962;SDS011;38827;53.024;6.596;2023-09-19T16:50:52;8.65;;;2.10;;
52962;SDS011;38827;53.024;6.596;2023-09-19T16:53:32;9.07;;;1.77;;
52962;SDS011;38827;53.024;6.596;2023-09-19T16:56:09;6.47;;;2.10;;
52962;SDS011;38827;53.024;6.596;2023-09-19T16:58:38;6.32;;;2.00;;
52962;SDS011;38827;53.024;6.596;2023-09-19T17:01:13;8.10;;;2.20;;
52962;SDS011;38827;53.024;6.596;2023-09-19T17:03:58;6.38;;;2.05;;
52962;SDS011;38827;53.024;6.596;2023-09-19T17:08:56;6.30;;;2.10;;
52962;SDS011;38827;53.024;6.596;2023-09-19T17:11:22;5.82;;;2.20;;
52962;SDS011;38827;53.024;6.596;2023-09-19T17:13:50;8.45;;;2.55;;
52962;SDS011;38827;53.024;6.596;2023-09-19T17:16:18;10.85;;;2.65;;
52962;SDS011;38827;53.024;6.596;2023-09-19T17:18:54;7.70;;;2.22;;
52962;SDS011;38827;53.024;6.596;2023-09-19T17:21:21;11.60;;;2.40;;
52962;SDS011;38827;53.024;6.596;2023-09-19T17:24:03;7.38;;;2.38;;
52962;SDS011;38827;53.024;6.596;2023-09-19T17:26:32;7.47;;;2.20;;
52962;SDS011;38827;53.024;6.596;2023-09-19T17:31:35;8.13;;;2.13;;
52962;SDS011;38827;53.024;6.596;2023-09-19T17:34:03;6.25;;;2.20;;
52962;SDS011;38827;53.024;6.596;2023-09-19T17:36:29;6.20;;;2.10;;
52962;SDS011;38827;53.024;6.596;2023-09-19T17:38:57;8.60;;;2.70;;
52962;SDS011;38827;53.024;6.596;2023-09-19T17:41:23;8.10;;;2.17;;
52962;SDS011;38827;53.024;6.596;2023-09-19T17:43:53;7.77;;;2.33;;
52962;SDS011;38827;53.024;6.596;2023-09-19T17:46:21;8.05;;;2.03;;
52962;SDS011;38827;53.024;6.596;2023-09-19T17:48:52;6.72;;;2.08;;
52962;SDS011;38827;53.024;6.596;2023-09-19T17:51:21;5.88;;;2.45;;
52962;SDS011;38827;53.024;6.596;2023-09-19T17:53:50;8.38;;;2.78;;
52962;SDS011;38827;53.024;6.596;2023-09-19T17:56:27;7.35;;;2.00;;
52962;SDS011;38827;53.024;6.596;2023-09-19T18:06:39;6.00;;;2.30;;
52962;SDS011;38827;53.024;6.596;2023-09-19T18:15:46;7.43;;;1.92;;
52962;SDS011;38827;53.024;6.596;2023-09-19T18:18:12;10.07;;;2.50;;
52962;SDS011;38827;53.024;6.596;2023-09-19T18:24:11;8.38;;;2.38;;
52962;SDS011;38827;53.024;6.596;2023-09-19T18:27:00;8.32;;;2.22;;
52962;SDS011;38827;53.024;6.596;2023-09-19T18:30:18;7.75;;;2.45;;
52962;SDS011;38827;53.024;6.596;2023-09-19T18:32:43;6.97;;;2.20;;
52962;SDS011;38827;53.024;6.596;2023-09-19T18:35:10;9.30;;;2.47;;
52962;SDS011;38827;53.024;6.596;2023-09-19T18:37:36;6.35;;;2.20;;
52962;SDS011;38827;53.024;6.596;2023-09-19T18:55:25;8.32;;;2.33;;
52962;SDS011;38827;53.024;6.596;2023-09-19T18:58:18;6.22;;;2.38;;
52962;SDS011;38827;53.024;6.596;2023-09-19T19:01:03;11.52;;;2.72;;
52962;SDS011;38827;53.024;6.596;2023-09-19T19:03:42;7.68;;;3.08;;
52962;SDS011;38827;53.024;6.596;2023-09-19T19:16:49;5.43;;;2.60;;
52962;SDS011;38827;53.024;6.596;2023-09-19T19:19:44;6.43;;;2.70;;
52962;SDS011;38827;53.024;6.596;2023-09-19T19:39:39;7.50;;;2.72;;
52962;SDS011;38827;53.024;6.596;2023-09-19T19:42:08;8.20;;;2.70;;
52962;SDS011;38827;53.024;6.596;2023-09-19T21:15:27;7.22;;;3.35;;
52962;SDS011;38827;53.024;6.596;2023-09-19T21:18:02;11.52;;;3.90;;
52962;SDS011;38827;53.024;6.596;2023-09-19T21:20:39;10.00;;;4.03;;
52962;SDS011;38827;53.024;6.596;2023-09-19T21:27:04;7.80;;;3.50;;
52962;SDS011;38827;53.024;6.596;2023-09-19T21:49:23;14.20;;;4.40;;
52962;SDS011;38827;53.024;6.596;2023-09-19T22:00:41;10.18;;;3.90;;
52962;SDS011;38827;53.024;6.596;2023-09-19T22:10:54;10.00;;;3.40;;
52962;SDS011;38827;53.024;6.596;2023-09-19T22:16:12;8.43;;;3.63;;
52962;SDS011;38827;53.024;6.596;2023-09-19T22:18:57;9.65;;;4.10;;
52962;SDS011;38827;53.024;6.596;2023-09-19T22:21:28;8.27;;;3.40;;
52962;SDS011;38827;53.024;6.596;2023-09-19T22:24:22;10.85;;;3.30;;
52962;SDS011;38827;53.024;6.596;2023-09-19T22:39:51;14.18;;;3.58;;
52962;SDS011;38827;53.024;6.596;2023-09-19T22:42:17;7.65;;;3.00;;
52962;SDS011;38827;53.024;6.596;2023-09-19T22:59:40;11.80;;;3.45;;
52962;SDS011;38827;53.024;6.596;2023-09-19T23:09:33;12.68;;;3.60;;
52962;SDS011;38827;53.024;6.596;2023-09-19T23:12:04;10.18;;;3.60;;
52962;SDS011;38827;53.024;6.596;2023-09-19T23:30:58;11.02;;;3.92;;
52962;SDS011;38827;53.024;6.596;2023-09-19T23:33:31;11.30;;;3.75;;
52962;SDS011;38827;53.024;6.596;2023-09-19T23:39:05;12.27;;;3.85;;
52962;SDS011;38827;53.024;6.596;2023-09-19T23:41:57;9.60;;;3.42;;
52962;SDS011;38827;53.024;6.596;2023-09-19T23:44:23;10.95;;;3.67;;
52962;SDS011;38827;53.024;6.596;2023-09-19T23:46:58;8.82;;;3.78;;
